Terminal Aerodrome Forecast
Issued by NWS Charleston, WV

Home | Current Version | Previous Version | Text Only | Print | Product List | Glossary On
Versions: 1 2 3 4 5 6 7 8 9 10 11 12 13 14 15 16 17 18 19 20 21 22 23 24
973
FTUS41 KRLX 240905 AAA
TAFPKB
TAF AMD
KPKB 240905Z 2409/2506 VRB04KT P6SM FEW070 OVC100
     FM241500 21009G16KT P6SM BKN050
     FM242300 21006KT P6SM BKN050=

USA.gov is the U.S. government's official web portal to all federal, state and local government web resources and services.